Fecha, hora, temperatura, viento dirección y velocidad, humedad y presión.

  • 19-03-2019 23:00:00 | 7.10°C | Oeste |10.00 km/h | 66.00% | 987.30 hPa
  • 19-03-2019 22:00:00 | 7.40°C | Sudoeste |8.00 km/h | 66.00% | 987.10 hPa
  • 19-03-2019 21:00:00 | 7.50°C | Oeste |10.00 km/h | 65.00% | 986.70 hPa
  • 19-03-2019 20:00:00 | 8.30°C | Oeste |10.00 km/h | 62.00% | 986.30 hPa
  • 19-03-2019 19:00:00 | 9.70°C | Noroeste |12.00 km/h | 58.00% | 985.90 hPa
  • 19-03-2019 18:00:00 | 10.10°C | Norte |14.00 km/h | 57.00% | 985.00 hPa
  • 19-03-2019 17:00:00 | 11.10°C | Noroeste |14.00 km/h | 54.00% | 984.70 hPa
  • 19-03-2019 16:00:00 | 12.10°C | Noroeste |13.00 km/h | 55.00% | 984.40 hPa
  • 19-03-2019 15:00:00 | 12.00°C | Noroeste |13.00 km/h | 58.00% | 984.40 hPa
  • 19-03-2019 14:00:00 | 12.10°C | Norte |15.00 km/h | 56.00% | 984.60 hPa
  • 19-03-2019 13:00:00 | 10.90°C | Noroeste |4.00 km/h | 69.00% | 984.30 hPa
  • 19-03-2019 12:00:00 | 10.20°C | Oeste |15.00 km/h | 71.00% | 984.20 hPa
  • 19-03-2019 11:00:00 | 9.80°C | Oeste |21.00 km/h | 71.00% | 983.90 hPa
  • 19-03-2019 10:00:00 | 8.20°C | Oeste |18.00 km/h | 78.00% | 983.80 hPa
  • 19-03-2019 09:00:00 | 7.20°C | Oeste |13.00 km/h | 81.00% | 983.70 hPa
  • 19-03-2019 08:00:00 | 6.50°C | Oeste |14.00 km/h | 85.00% | 983.30 hPa
  • 19-03-2019 07:00:00 | 6.50°C | Oeste |12.00 km/h | 84.00% | 983.10 hPa
  • 19-03-2019 06:00:00 | 6.70°C | Oeste |12.00 km/h | 81.00% | 982.90 hPa
  • 19-03-2019 05:00:00 | 6.70°C | Oeste |6.00 km/h | 81.00% | 983.10 hPa
  • 19-03-2019 04:00:00 | 6.80°C | Oeste |9.00 km/h | 81.00% | 983.20 hPa
  • 19-03-2019 03:00:00 | 7.10°C | Oeste |11.00 km/h | 76.00% | 983.60 hPa
  • 19-03-2019 02:00:00 | 7.00°C | Oeste |9.00 km/h | 78.00% | 984.10 hPa
  • 19-03-2019 01:00:00 | 7.30°C | Oeste |9.00 km/h | 73.00% | 984.30 hPa
  • 19-03-2019 00:00:00 | 7.70°C | Oeste |8.00 km/h | 70.00% | 984.80 hPa
    • diseño web asturias Información sobre el estado de las mareas, altura de la marejada, temperatura del agua y otros datos de Gijón en Asturias.

      Surf Gijón